Tiempo atmosférico en la estación meteorológica de Vega de San Mateo, Las Palmas (1702 m.)



Fecha
DESCASC
Temp. máxima en grados centígrados (hora)
DESCASC
Temp. mínima en grados centígrados (hora)
DESCASC
Temp. media en grados centígrados
DESCASC
Racha de viento máxima en m/sg (hora)
DESCASC
Velocidad máxima media en intervalos de 10 minutos(hora)
DESCASC
Precipitaciones diarias en mm
DESCASC
Precipitaciones de 00:00 a 06:00 en mm
DESCASC
Precipitaciones de 06:00 a 12:00 en mm
DESCASC
Precipitaciones de 12:00 a 18:00 en mm
DESCASC
Precipitaciones de 18:00 a 24:00 en mm
DESCASC
13-01-2021 -- (--) -- (--) -- -- (--) -- (--) -- 1.4 1.2 0.2 --
12-01-2021 4.1 (12:40) 1.3 (04:00) 2.7 8.33 (22:30) 3.89 (15:00) 15.8 3 5.4 5.2 2.2
11-01-2021 3.5 (14:40) 0.6 (05:50) 2.1 10.56 (04:00) 4.17 (05:00) 22.2 8.8 0.6 5.8 7
10-01-2021 3.4 (22:40) 1.3 (01:10) 2.4 11.94 (12:30) 5 (23:10) 21.6 6.6 9.6 1.4 4
09-01-2021 2.4 (12:50) 0.3 (00:00) 1.4 12.22 (17:30) 6.11 (19:50) 9.2 2.8 1.6 2 2.8
08-01-2021 8.5 (00:00) 2 (00:00) 5.3 21.39 (01:10) 10.83 (00:20) 29.2 12 3.8 9 4.4
07-01-2021 -- (--) -- (--) -- -- (--) -- (--) -- 11.2 48 -- --
06-01-2021 11.1 (13:50) 7.1 (00:00) 9.1 25.56 (06:10) 12.22 (06:20) 84.8 5.2 40.2 37.8 1.6
05-01-2021 12.3 (12:50) 5.5 (00:00) 8.9 15 (00:10) 8.33 (00:30) 1.8 0 0 0.2 1.6
04-01-2021 13.8 (11:10) 5.9 (00:00) 9.9 18.33 (23:10) 10.56 (23:00) 0 0 0 0 0
03-01-2021 10 (15:30) 3.2 (00:00) 6.6 4.44 (22:30) 2.5 (00:20) 0 0 0 0 0
02-01-2021 10.6 (10:30) 2.4 (00:00) 6.5 6.67 (11:30) 3.33 (05:30) 0 0 0 0 0
01-01-2021 6 (12:30) 2.1 (00:00) 4 12.22 (05:50) 6.67 (01:20) 0.6 0.2 0 0.4 0
31-12-2020 10.8 (13:50) 2.6 (00:00) 6.7 9.17 (23:30) 5 (23:30) 1 0.2 0 0 0.8
30-12-2020 12.1 (13:10) 2.8 (00:00) 7.5 6.39 (14:20) 3.33 (14:40) 1.6 0 0 1.6 0
29-12-2020 13 (09:50) 3.8 (00:00) 8.4 4.17 (14:00) 2.78 (13:40) 0 0 0 0 0
28-12-2020 13.9 (13:10) 6.2 (00:00) 10 10.28 (06:50) 6.39 (02:20) 0 0 0 0 0
27-12-2020 14.9 (11:10) 7.3 (00:00) 11.1 10.83 (22:40) 6.11 (21:50) 0 0 0 0 0
26-12-2020 13.1 (12:40) 7.3 (00:00) 10.2 8.61 (01:10) 5 (01:10) 0 0 0 0 0
25-12-2020 12.6 (13:00) 5.7 (00:00) 9.2 14.72 (02:10) 8.61 (00:10) 0 0 0 0 0
24-12-2020 8.5 (15:50) 4.5 (00:00) 6.5 20.56 (03:50) 13.33 (03:20) 0 0 0 0 0
23-12-2020 9.4 (10:40) 5.3 (00:00) 7.3 18.89 (23:00) 12.78 (23:30) 0 0 0 0 0
22-12-2020 13 (12:30) 7.5 (00:00) 10.3 13.33 (22:10) 7.5 (22:50) 0 0 0 0 0
21-12-2020 15.6 (11:30) 4.5 (00:00) 10.1 5.56 (07:00) 3.61 (06:00) 0.2 0.2 0 0 0
20-12-2020 13 (13:10) 6.1 (00:00) 9.5 10 (01:30) 5.56 (00:10) 0 0 0 0 0
19-12-2020 14.5 (13:10) 3.4 (00:00) 9 11.39 (20:20) 6.67 (20:50) 0 0 0 0 0

Gráficas

Temp. máximas Temp. mínimas Temp. medias Precipitaciones Rachas de viento máximas Velocidades máximas media en intervalos de 10 minutos

Datos horarios

Fecha y hora oficial Temperatura (ºC) Velocidad del viento (km/h) Dirección del viento Racha (km/h) Dirección de racha Precipitación (mm) Presión (hPa) Tendencia (hPa) Humedad (%)
2021-01-17 23:00:00 6.3 0 Calma 4 Norte 0 -- -- 17
2021-01-17 22:00:00 4.4 2 Norte 5 Nordeste 0 -- -- 33
2021-01-17 21:00:00 5.3 0 Calma 5 Este 0 -- -- 48
2021-01-17 20:00:00 5.3 0 Calma 3 Este 0 -- -- 21
2021-01-17 19:00:00 5.8 0 Calma 6 Sudoeste 0 -- -- 31
2021-01-17 18:00:00 10.7 4 Sudoeste 10 Sudoeste 0 -- -- 41
2021-01-17 17:00:00 11.5 5 Oeste 13 Oeste 0 -- -- 71
2021-01-17 16:00:00 11.8 8 Oeste 15 Oeste 0 -- -- 68
2021-01-17 15:00:00 12.1 10 Oeste 18 Oeste 0 -- -- 59
2021-01-17 14:00:00 14.8 5 Oeste 14 Oeste 0 -- -- 36
2021-01-17 13:00:00 15.3 5 Oeste 13 Oeste 0 -- -- 22
2021-01-17 12:00:00 15.6 6 Sudeste 18 Sur 0 -- -- 13
2021-01-17 11:00:00 14.5 6 Sudeste 16 Sur 0 -- -- 12
2021-01-17 10:00:00 12.4 9 Sudeste 21 Sudeste 0 -- -- 11
2021-01-17 09:00:00 10 8 Sudeste 15 Este 0 -- -- 13
2021-01-17 08:00:00 6.1 6 Nordeste 19 Sudeste 0 -- -- 18
2021-01-17 07:00:00 8.1 8 Este 29 Este 0 -- -- 11
2021-01-17 06:00:00 9.3 22 Este 33 Sudeste 0 -- -- 8
2021-01-17 05:00:00 8.3 15 Este 27 Este 0 -- -- 10
2021-01-17 04:00:00 8 12 Este 24 Este 0 -- -- 13
2021-01-17 03:00:00 8.4 15 Este 26 Este 0 -- -- 12
2021-01-17 02:00:00 8.1 14 Este 21 Este 0 -- -- 12
2021-01-17 01:00:00 8.1 13 Este 21 Este 0 -- -- 12
2021-01-17 00:00:00 8.7 11 Este 17 Este 0 -- -- 9
2021-01-16 23:00:00 7.5 10 Este 15 Este 0 -- -- 13
2021-01-16 22:00:00 7.4 11 Este 16 Este 0 -- -- 13
2021-01-16 21:00:00 5.5 6 Este 15 Este 0 -- -- 31
2021-01-16 20:00:00 5.8 6 Este 12 Este 0 -- -- 27
2021-01-16 19:00:00 4.1 5 Este 9 Este 0 -- -- 45
2021-01-16 18:00:00 6.5 6 Este 13 Este 0 -- -- 73
2021-01-16 17:00:00 7.3 7 Este 19 Este 0 -- -- 66
2021-01-16 16:00:00 7.4 10 Nordeste 21 Nordeste 0 -- -- 92
2021-01-16 15:00:00 7 12 Nordeste 25 Este 0 -- -- 89
2021-01-16 14:00:00 8.2 10 Este 23 Nordeste 0 -- -- 87
2021-01-16 13:00:00 8.7 10 Este 23 Nordeste 0 -- -- 76
2021-01-16 12:00:00 7.4 11 Este 21 Nordeste 0 -- -- 90
2021-01-16 11:00:00 8.4 10 Este 22 Este 0 -- -- 60
2021-01-16 10:00:00 3.6 15 Este 28 Este 0 -- -- 100
2021-01-16 09:00:00 2.2 16 Este 27 Nordeste 0 -- -- 100
2021-01-16 08:00:00 2 15 Este 27 Este 0 -- -- 100
2021-01-16 07:00:00 2 14 Este 24 Este 0 -- -- 100
2021-01-16 06:00:00 2.5 15 Este 24 Este 0 -- -- 65
2021-01-16 05:00:00 1.8 16 Este 25 Este 0 -- -- 92
2021-01-16 04:00:00 0.9 14 Este 23 Este 0 -- -- 100
2021-01-16 03:00:00 1.9 15 Este 28 Este 0 -- -- 100
2021-01-16 02:00:00 2.3 15 Este 32 Este 0 -- -- 100
2021-01-16 01:00:00 2.2 18 Este 35 Este 0 -- -- 100
2021-01-16 00:00:00 2.3 17 Este 33 Este 0 -- -- 100
2021-01-15 23:00:00 2.6 15 Este 36 Este 0 -- -- 100
2021-01-15 22:00:00 3.4 21 Este 38 Este 0.2 -- -- 100
2021-01-15 21:00:00 2.2 18 Este 33 Este 0 -- -- 100
2021-01-15 20:00:00 2 17 Este 31 Este 0 -- -- 100
2021-01-15 19:00:00 3.1 19 Este 39 Este 0 -- -- 100
2021-01-15 18:00:00 3.8 20 Este 36 Nordeste 0 -- -- 100
2021-01-15 17:00:00 3 18 Este 33 Este 0 -- -- 100
2021-01-15 16:00:00 3.7 19 Este 35 Este 0 -- -- 100
2021-01-15 15:00:00 4 16 Este 31 Este 0 -- -- 100
2021-01-15 14:00:00 3.1 19 Este 36 Este 0 -- -- 100
2021-01-15 13:00:00 3.8 19 Este 41 Este 0 -- -- 100
2021-01-15 12:00:00 3.3 21 Este 37 Nordeste 0 -- -- 100
2021-01-15 11:00:00 2.9 20 Este 36 Este 0 -- -- 100
2021-01-15 10:00:00 2.3 19 Este 33 Este 0 -- -- 100
2021-01-15 09:00:00 2.1 17 Este 31 Nordeste 0 -- -- 100
2021-01-15 08:00:00 2.2 16 Este 35 Nordeste 0 -- -- 100
2021-01-15 07:00:00 2.4 15 Este 37 Este 0 -- -- 100
2021-01-15 06:00:00 2.3 20 Este 35 Este 0 -- -- 100
2021-01-15 05:00:00 2.3 19 Este 35 Este 0 -- -- 100
2021-01-15 04:00:00 2.3 22 Este 36 Este 0 -- -- 100
2021-01-15 03:00:00 2.2 21 Este 45 Este 0 -- -- 100
2021-01-15 02:00:00 2.4 23 Este 45 Este 0.2 -- -- 100
2021-01-15 01:00:00 3.2 25 Este 46 Este 0.2 -- -- 100
2021-01-15 00:00:00 3.4 23 Este 43 Este 0 -- -- 100
2021-01-14 23:00:00 1.1 23 Este 44 Nordeste 0 -- -- 100
2021-01-14 22:00:00 1.9 26 Este 45 Este 0 -- -- 100
2021-01-14 21:00:00 2.5 24 Este 48 Este 0 -- -- 100
2021-01-14 20:00:00 2.7 23 Este 49 Este 0 -- -- 100
2021-01-14 19:00:00 2.8 18 Este 35 Este 0.2 -- -- 100
2021-01-14 18:00:00 3.3 18 Este 38 Este 0 -- -- 100
2021-01-14 17:00:00 2.7 8 Sudeste 33 Este 0 -- -- 100
2021-01-14 16:00:00 3.4 12 Este 37 Este 0.2 -- -- 100
2021-01-14 15:00:00 3.4 6 Sur 24 Este 0.2 -- -- 100
2021-01-14 14:00:00 3.7 8 Sudeste 26 Este 0.2 -- -- 100
2021-01-14 13:00:00 3.2 8 Este 26 Este 0 -- -- 100
2021-01-14 12:00:00 2.9 6 Sudeste 30 Nordeste 0 -- -- 100
2021-01-14 11:00:00 3.2 12 Este 42 Este 0 -- -- 100
2021-01-14 10:00:00 2.9 17 Este 42 Este 0 -- -- 100
2021-01-14 09:00:00 2.5 13 Este 32 Este 0 -- -- 100
2021-01-14 08:00:00 2.7 13 Este 32 Este 0 -- -- 100
2021-01-14 07:00:00 2.4 12 Este 26 Este 0 -- -- 100
2021-01-14 06:00:00 2.3 10 Este 27 Este 0 -- -- 100
2021-01-14 05:00:00 2.7 13 Este 26 Este 0 -- -- 100
2021-01-14 04:00:00 1.1 14 Este 32 Nordeste 0 -- -- 100
2021-01-14 03:00:00 3 17 Este 37 Nordeste 0 -- -- 100
2021-01-14 02:00:00 3.4 16 Este 33 Este 0 -- -- 100
2021-01-14 01:00:00 2.5 10 Este 25 Este 0 -- -- 100
2021-01-14 00:00:00 2.3 10 Este 24 Este 0 -- -- 100
2021-01-13 23:00:00 2.4 11 Este 29 Sudeste 0 -- -- 100
2021-01-13 22:00:00 2.9 15 Este 36 Este 0 -- -- 100
2021-01-13 21:00:00 -- -- -- -- -- -- -- -- --
2021-01-13 20:00:00 2.5 15 Este 34 Este 0 -- -- 100
2021-01-13 19:00:00 2.5 10 Este 31 Este 0 -- -- 100
2021-01-13 18:00:00 2.2 19 Este 39 Nordeste 0 -- -- 100
2021-01-13 17:00:00 3.1 17 Este 40 Este 0 -- -- 100
2021-01-13 16:00:00 3.1 19 Este 37 Este 0 -- -- 100
2021-01-13 15:00:00 3.2 24 Este 45 Este 0 -- -- 100
2021-01-13 14:00:00 3.1 23 Este 50 Este 0 -- -- 100
2021-01-13 13:00:00 3.2 21 Este 48 Este 0.2 -- -- 100
2021-01-13 12:00:00 3.4 19 Este 42 Este 0 -- -- 100
2021-01-13 11:00:00 3.3 12 Sudeste 44 Este 0 -- -- 100
2021-01-13 10:00:00 3 7 Sur 24 Este 0 -- -- 100
2021-01-13 09:00:00 2.9 7 Oeste 24 Noroeste 0.8 -- -- 100
2021-01-13 08:00:00 3.2 8 Sudeste 27 Sudeste 0.2 -- -- 100
2021-01-13 07:00:00 2.7 9 Sur 27 Oeste 0.2 -- -- 100
2021-01-13 06:00:00 3.1 7 Sur 25 Este 0.4 -- -- 100
2021-01-13 05:00:00 3.2 8 Este 29 Este 0.6 -- -- 100
2021-01-13 04:00:00 2.7 12 Este 33 Este 0 -- -- 100
2021-01-13 03:00:00 2.7 10 Este 30 Sudeste 0 -- -- 100
2021-01-13 02:00:00 3.1 9 Sur 24 Noroeste 0.4 -- -- 100
2021-01-13 01:00:00 2.9 10 Sudeste 24 Este 0 -- -- 100
2021-01-13 00:00:00 2.8 6 Sur 18 Noroeste 0.2 -- -- 100
2021-01-12 23:00:00 3.1 9 Oeste 30 Noroeste 0.6 -- -- 100
2021-01-12 22:00:00 3.4 8 Oeste 24 Este 0.8 -- -- 100
2021-01-12 21:00:00 2.7 5 Sudeste 24 Este 0 -- -- 100
2021-01-12 20:00:00 2.6 5 Sur 26 Norte 0 -- -- 100
2021-01-12 19:00:00 2.9 5 Sudoeste 15 Oeste 0.6 -- -- 100
2021-01-12 18:00:00 2.8 4 Sudeste 23 Este 0 -- -- 100
2021-01-12 17:00:00 3.4 6 Este 22 Este 0 -- -- 100
2021-01-12 16:00:00 2.5 10 Este 26 Este 0 -- -- 100
2021-01-12 15:00:00 3 14 Este 27 Este 0.2 -- -- 100
2021-01-12 14:00:00 2.4 5 Sur 23 Sudoeste 3 -- -- 100
2021-01-12 13:00:00 3.9 4 Sudeste 16 Este 2 -- -- 100
2021-01-12 12:00:00 3.2 6 Sudeste 18 Este 0 -- -- 100
2021-01-12 11:00:00 2.4 8 Este 20 Este 0 -- -- 100
2021-01-12 10:00:00 1.9 7 Sur 21 Nordeste 1.4 -- -- 100
2021-01-12 09:00:00 2.5 6 Oeste 16 Noroeste 2 -- -- 100
2021-01-12 08:00:00 1.9 5 Oeste 15 Norte 0.4 -- -- 100
2021-01-12 07:00:00 2.4 7 Oeste 20 Noroeste 1.6 -- -- 100
2021-01-12 06:00:00 2.4 5 Oeste 17 Noroeste 0.2 -- -- 100
2021-01-12 05:00:00 2.1 4 Sur 12 Oeste 2 -- -- 100
2021-01-12 04:00:00 1.3 6 Oeste 18 Noroeste 0 -- -- 100
2021-01-12 03:00:00 1.8 5 Sudoeste 23 Oeste 0.2 -- -- 100
2021-01-12 02:00:00 1.7 6 Oeste 19 Noroeste 0.4 -- -- 100
2021-01-12 01:00:00 1.9 4 Sudoeste 21 Noroeste 0.2 -- -- 100
2021-01-12 00:00:00 2 6 Oeste 23 Oeste 0.2 -- -- 100
2021-01-11 23:00:00 2.4 6 Oeste 23 Noroeste 0.8 -- -- 100
2021-01-11 22:00:00 2.3 11 Oeste 27 Este 1 -- -- 100
2021-01-11 21:00:00 2.3 11 Noroeste 23 Noroeste 0.6 -- -- 100
2021-01-11 20:00:00 2.3 9 Oeste 31 Noroeste 2.6 -- -- 100
2021-01-11 19:00:00 3.3 10 Oeste 22 Oeste 1.8 -- -- 100
2021-01-11 18:00:00 2.8 7 Oeste 21 Oeste 1.2 -- -- 100
2021-01-11 17:00:00 2.5 5 Sudoeste 18 Noroeste 0.2 -- -- 100
2021-01-11 16:00:00 2.6 7 Oeste 22 Noroeste 1.8 -- -- 100
2021-01-11 15:00:00 3.5 4 Sudoeste 19 Noroeste 1.6 -- -- 100
2021-01-11 14:00:00 3 8 Oeste 25 Noroeste 0.2 -- -- 100
2021-01-11 13:00:00 3.1 6 Oeste 18 Noroeste 0.8 -- -- 100
2021-01-11 12:00:00 2.7 5 Sudoeste 19 Oeste 0 -- -- 100
2021-01-11 11:00:00 2.4 9 Oeste 22 Noroeste 0.6 -- -- 100
2021-01-11 10:00:00 1.3 9 Noroeste 24 Noroeste 0 -- -- 100
2021-01-11 09:00:00 1.2 6 Oeste 19 Noroeste 0 -- -- 100
2021-01-11 08:00:00 0.7 5 Sur 24 Noroeste 0 -- -- 100
2021-01-11 07:00:00 0.9 8 Oeste 30 Noroeste 0 -- -- 100
2021-01-11 06:00:00 0.6 9 Oeste 30 Oeste 0 -- -- 100
2021-01-11 05:00:00 1 15 Oeste 37 Noroeste 0.2 -- -- 100
2021-01-11 04:00:00 1.6 15 Noroeste 38 Oeste 0.4 -- -- 100
2021-01-11 03:00:00 2.4 15 Noroeste 36 Noroeste 2 -- -- 100
2021-01-11 02:00:00 2.8 12 Noroeste 35 Oeste 2.8 -- -- 100
2021-01-11 01:00:00 3.2 6 Oeste 27 Oeste 3.4 -- -- 100
2021-01-11 00:00:00 2.5 13 Noroeste 36 Norte 1.4 -- -- 100
2021-01-10 23:00:00 3.3 10 Oeste 32 Noroeste 2 -- -- 100
2021-01-10 22:00:00 2.3 12 Noroeste 34 Norte 0.2 -- -- 100
2021-01-10 21:00:00 2 14 Noroeste 37 Oeste 0 -- -- 100
2021-01-10 20:00:00 2 12 Noroeste 35 Oeste 0 -- -- 100
2021-01-10 19:00:00 1.5 12 Noroeste 40 Oeste 0.4 -- -- 100
2021-01-10 18:00:00 2.4 11 Noroeste 34 Noroeste 0.4 -- -- 100
2021-01-10 17:00:00 2.8 11 Noroeste 30 Oeste 0.2 -- -- 100
2021-01-10 16:00:00 2.6 11 Noroeste 31 Oeste 0 -- -- 100
2021-01-10 15:00:00 2.6 6 Norte 34 Oeste 0.4 -- -- 100
2021-01-10 14:00:00 2.9 11 Noroeste 31 Oeste 0.2 -- -- 100
2021-01-10 13:00:00 2.8 10 Oeste 43 Oeste 0.2 -- -- 100
2021-01-10 12:00:00 3 10 Noroeste 33 Noroeste 1 -- -- 100
2021-01-10 11:00:00 2.6 10 Oeste 39 Oeste 1 -- -- 100
2021-01-10 10:00:00 2.7 10 Noroeste 30 Oeste 0.6 -- -- 100
2021-01-10 09:00:00 2.1 6 Noroeste 31 Oeste 1.4 -- -- 100
2021-01-10 08:00:00 2.1 12 Noroeste 32 Oeste 3.2 -- -- 100
2021-01-10 07:00:00 2.2 10 Noroeste 26 Oeste 2.4 -- -- 100
2021-01-10 06:00:00 2.3 9 Noroeste 30 Noroeste 2 -- -- 100
2021-01-10 05:00:00 2.5 9 Norte 30 Noroeste 2.8 -- -- 100
2021-01-10 04:00:00 2.1 5 Noroeste 30 Noroeste 1 -- -- 100
2021-01-10 03:00:00 1.3 9 Oeste 33 Noroeste 0 -- -- 100
2021-01-10 02:00:00 1.3 10 Noroeste 32 Norte 0.4 -- -- 100
2021-01-10 01:00:00 1.4 12 Oeste 33 Noroeste 0.4 -- -- 100
2021-01-10 00:00:00 1.6 10 Oeste 33 Sudoeste 0.2 -- -- 100
2021-01-09 23:00:00 1.6 13 Oeste 39 Noroeste 0.2 -- -- 100
2021-01-09 22:00:00 1.5 13 Oeste 38 Noroeste 0 -- -- 100
2021-01-09 21:00:00 1.3 17 Oeste 40 Noroeste 0.6 -- -- 100
2021-01-09 20:00:00 0.9 18 Noroeste 39 Noroeste 0.8 -- -- 100
2021-01-09 19:00:00 0.9 15 Noroeste 41 Noroeste 1 -- -- 100
2021-01-09 18:00:00 1.3 20 Noroeste 44 Noroeste 0.2 -- -- 100
2021-01-09 17:00:00 1.4 15 Noroeste 35 Noroeste 0.6 -- -- 100
2021-01-09 16:00:00 1.5 14 Noroeste 34 Noroeste 0.4 -- -- 100
2021-01-09 15:00:00 1.8 9 Noroeste 31 Oeste 0.4 -- -- 100
2021-01-09 14:00:00 2.1 10 Noroeste 40 Sudoeste 0.4 -- -- 100
2021-01-09 13:00:00 2.2 13 Noroeste 31 Noroeste 0 -- -- 100
2021-01-09 12:00:00 2 9 Noroeste 26 Norte 0.2 -- -- 100
2021-01-09 11:00:00 1.8 7 Noroeste 32 Oeste 0.6 -- -- 100
2021-01-09 10:00:00 1.7 10 Oeste 30 Oeste 0 -- -- 100
2021-01-09 09:00:00 1.3 9 Noroeste 29 Oeste 0.6 -- -- 100
2021-01-09 08:00:00 0.9 7 Noroeste 25 Oeste 0.2 -- -- 100
2021-01-09 07:00:00 0.8 11 Oeste 38 Oeste 0 -- -- 100
2021-01-09 06:00:00 0.8 9 Oeste 30 Oeste 1.2 -- -- 100
2021-01-09 05:00:00 1.4 15 Oeste 28 Oeste 0.4 -- -- 100
2021-01-09 04:00:00 1.5 8 Noroeste 23 Oeste 0.8 -- -- 100
2021-01-09 03:00:00 1.2 10 Oeste 26 Oeste 0.4 -- -- 100
2021-01-09 02:00:00 0.8 4 Sur 23 Norte 0 -- -- 100
2021-01-09 01:00:00 1.4 5 Noroeste 27 Oeste 0 -- -- 100
2021-01-09 00:00:00 2.1 4 Oeste 19 Oeste 0.2 -- -- 100
2021-01-08 23:00:00 2.5 6 Noroeste 23 Oeste 0.6 -- -- 100
2021-01-08 22:00:00 2.5 6 Oeste 34 Oeste 0.2 -- -- 100
2021-01-08 21:00:00 3 5 Oeste 24 Oeste 0.6 -- -- 100
2021-01-08 20:00:00 2.5 12 Oeste 32 Oeste 0.8 -- -- 100
2021-01-08 19:00:00 3 6 Noroeste 22 Oeste 2 -- -- 100
2021-01-08 18:00:00 3.9 10 Oeste 33 Oeste 0.8 -- -- 100
2021-01-08 17:00:00 3.9 14 Oeste 28 Oeste 1.4 -- -- 100
2021-01-08 16:00:00 4 12 Oeste 27 Oeste 1.4 -- -- 100
2021-01-08 15:00:00 4.9 13 Oeste 30 Noroeste 1.8 -- -- 100
2021-01-08 14:00:00 5.3 14 Oeste 28 Oeste 2.2 -- -- 100
2021-01-08 13:00:00 5.6 18 Oeste 35 Oeste 1.4 -- -- 100
2021-01-08 12:00:00 5.4 20 Oeste 31 Oeste 0 -- -- 100
2021-01-08 11:00:00 5.2 21 Oeste 35 Oeste 0.2 -- -- 100
2021-01-08 10:00:00 5.4 20 Oeste 37 Noroeste 0.2 -- -- 100
2021-01-08 09:00:00 6 20 Oeste 44 Oeste 0.4 -- -- 100
2021-01-08 08:00:00 5.7 27 Oeste 43 Oeste 1.6 -- -- 100
2021-01-08 07:00:00 6.2 27 Oeste 49 Oeste 1.4 -- -- 100
2021-01-08 06:00:00 6.3 25 Oeste 56 Oeste 0.6 -- -- 100
2021-01-08 05:00:00 6.2 35 Oeste 64 Oeste 0.4 -- -- 100
2021-01-08 04:00:00 6.3 35 Oeste 69 Oeste 0 -- -- 100
2021-01-08 03:00:00 6.4 36 Oeste 69 Oeste 3.6 -- -- 100
2021-01-08 02:00:00 7.6 30 Oeste 77 Sudoeste 4.4 -- -- 100
2021-01-08 01:00:00 7.3 36 Oeste 73 Oeste 3 -- -- 100
2021-01-08 00:00:00 8.5 32 Oeste 62 Oeste 8.6 -- -- 100
2021-01-07 23:00:00 -- -- -- -- -- -- -- -- --
2021-01-07 22:00:00 -- -- -- -- -- -- -- -- --
2021-01-07 21:00:00 -- -- -- -- -- -- -- -- --
2021-01-07 20:00:00 -- -- -- -- -- -- -- -- --
2021-01-07 19:00:00 9.1 36 Oeste 80 Oeste 11.6 -- -- 100
2021-01-07 18:00:00 8.8 41 Oeste 91 Noroeste 6.6 -- -- 100
2021-01-07 17:00:00 8.8 40 Oeste 88 Oeste 8.6 -- -- 100
2021-01-07 16:00:00 -- -- -- -- -- -- -- -- --
2021-01-07 15:00:00 9.1 39 Oeste 72 Oeste 10.4 -- -- 100
2021-01-07 14:00:00 9 41 Oeste 82 Oeste 5.8 -- -- 100
2021-01-07 13:00:00 8.1 40 Oeste 79 Noroeste 6.2 -- -- 100
2021-01-07 12:00:00 9 38 Oeste 82 Oeste 10.8 -- -- 100
2021-01-07 11:00:00 9.8 35 Sudoeste 77 Sudoeste 16.4 -- -- 100
2021-01-07 10:00:00 8.9 31 Sudoeste 64 Sudoeste 5.4 -- -- 100
2021-01-07 09:00:00 8.5 35 Sudoeste 75 Oeste 6.2 -- -- 100
2021-01-07 08:00:00 9 41 Oeste 84 Oeste 6.8 -- -- 100
2021-01-07 07:00:00 8.7 35 Sudoeste 71 Oeste 2.4 -- -- 100
2021-01-07 06:00:00 8.6 28 Sudoeste 71 Noroeste 1.8 -- -- 100
2021-01-07 05:00:00 9 25 Sudoeste 61 Sudoeste 2.4 -- -- 100
2021-01-07 04:00:00 9.3 26 Sudoeste 54 Sudoeste 3.6 -- -- 100
2021-01-07 03:00:00 8.9 25 Oeste 59 Oeste 1.2 -- -- 100
2021-01-07 02:00:00 8.7 29 Oeste 56 Oeste 0.8 -- -- 100
2021-01-07 01:00:00 9.3 29 Oeste 56 Oeste 1.4 -- -- 100
2021-01-07 00:00:00 9.6 29 Oeste 54 Noroeste 1 -- -- 100
2021-01-06 23:00:00 8.6 27 Oeste 54 Oeste 0.2 -- -- 100
2021-01-06 22:00:00 8.7 27 Sudoeste 56 Oeste 0 -- -- 100
2021-01-06 21:00:00 8.3 31 Oeste 55 Oeste 0.2 -- -- 100
2021-01-06 20:00:00 8.4 34 Oeste 62 Oeste 0 -- -- 100
2021-01-06 19:00:00 9.2 32 Oeste 75 Oeste 0.2 -- -- 100
2021-01-06 18:00:00 9.1 31 Oeste 59 Oeste 0.2 -- -- 100
2021-01-06 17:00:00 10.1 32 Oeste 60 Oeste 2 -- -- 100
2021-01-06 16:00:00 10.2 31 Oeste 69 Oeste 2.6 -- -- 100
2021-01-06 15:00:00 11.1 36 Oeste 86 Oeste 8.2 -- -- 100
2021-01-06 14:00:00 11.1 35 Oeste 79 Oeste 15 -- -- 100
2021-01-06 13:00:00 10.5 35 Oeste 74 Sudoeste 9.8 -- -- 100
2021-01-06 12:00:00 10.3 35 Oeste 62 Oeste 5.8 -- -- 100
2021-01-06 11:00:00 10.2 32 Oeste 81 Oeste 10 -- -- 100
2021-01-06 10:00:00 9.8 39 Sudoeste 78 Sudoeste 5.2 -- -- 100
2021-01-06 09:00:00 9.3 37 Sudoeste 83 Oeste 7.8 -- -- 100
2021-01-06 08:00:00 10.1 36 Oeste 82 Noroeste 8.8 -- -- 100
2021-01-06 07:00:00 9.3 36 Oeste 92 Oeste 2.6 -- -- 100
2021-01-06 06:00:00 8.7 39 Oeste 75 Oeste 0.6 -- -- 100
2021-01-06 05:00:00 8 37 Oeste 86 Oeste 0 -- -- 100
2021-01-06 04:00:00 7.1 39 Oeste 65 Oeste 0.8 -- -- 100
2021-01-06 03:00:00 8.4 23 Oeste 48 Oeste 2 -- -- 100
2021-01-06 02:00:00 7.9 24 Oeste 51 Sudoeste 1 -- -- 100
2021-01-06 01:00:00 7.8 23 Oeste 45 Sudoeste 0.8 -- -- 100
2021-01-06 00:00:00 7.6 20 Sudoeste 39 Sudoeste 0.4 -- -- 100
2021-01-05 23:00:00 7.6 19 Sudoeste 39 Oeste 0.2 -- -- 100
2021-01-05 22:00:00 7.6 17 Oeste 39 Oeste 0.2 -- -- 100
2021-01-05 21:00:00 8.4 17 Oeste 30 Oeste 0.6 -- -- 100
2021-01-05 20:00:00 8.1 14 Oeste 37 Oeste 0 -- -- 100
2021-01-05 19:00:00 8.3 16 Sudoeste 33 Sudoeste 0.2 -- -- 100
2021-01-05 18:00:00 9.1 15 Oeste 29 Noroeste 0 -- -- 100
2021-01-05 17:00:00 9.4 12 Oeste 31 Noroeste 0.2 -- -- 99
2021-01-05 16:00:00 9.1 13 Oeste 33 Oeste 0 -- -- 98
2021-01-05 15:00:00 9.2 18 Oeste 34 Oeste 0 -- -- 98
2021-01-05 14:00:00 10.8 17 Oeste 27 Oeste 0 -- -- 87
2021-01-05 13:00:00 12.1 16 Oeste 37 Oeste 0 -- -- 76
2021-01-05 12:00:00 11.8 15 Oeste 30 Oeste 0 -- -- 78
2021-01-05 11:00:00 10.8 15 Oeste 31 Oeste 0 -- -- 80
2021-01-05 10:00:00 9.5 13 Oeste 23 Oeste 0 -- -- 85
2021-01-05 09:00:00 9 13 Oeste 27 Oeste 0 -- -- 85
2021-01-05 08:00:00 7.4 15 Oeste 34 Oeste 0 -- -- 83
2021-01-05 07:00:00 7.6 20 Oeste 38 Oeste 0 -- -- 85
2021-01-05 06:00:00 7.3 19 Oeste 32 Oeste 0 -- -- 99
2021-01-05 05:00:00 5.5 4 Sudoeste 10 Oeste 0 -- -- 94
2021-01-05 04:00:00 6.5 5 Oeste 25 Sudoeste 0 -- -- 93
2021-01-05 03:00:00 6.9 10 Oeste 27 Oeste 0 -- -- 99
2021-01-05 02:00:00 6.7 18 Oeste 43 Oeste 0 -- -- 94
2021-01-05 01:00:00 6.9 26 Oeste 54 Oeste 0 -- -- 92
2021-01-05 00:00:00 9 27 Oeste 66 Oeste 0 -- -- 99
2021-01-04 23:00:00 9 38 Oeste 58 Oeste 0 -- -- 99
2021-01-04 22:00:00 8.3 27 Oeste 49 Oeste 0 -- -- 96
2021-01-04 21:00:00 8 29 Oeste 55 Oeste 0 -- -- 94
2021-01-04 20:00:00 8.6 27 Oeste 59 Oeste 0 -- -- 89
2021-01-04 19:00:00 8.9 30 Sudoeste 62 Oeste 0 -- -- 88
2021-01-04 18:00:00 9.2 30 Sudoeste 61 Oeste 0 -- -- 84
2021-01-04 17:00:00 9.7 28 Oeste 61 Sudoeste 0 -- -- 86
2021-01-04 16:00:00 10.4 32 Oeste 58 Oeste 0 -- -- 83
2021-01-04 15:00:00 10.5 26 Sudoeste 46 Oeste 0 -- -- 82
2021-01-04 14:00:00 11.2 21 Oeste 53 Oeste 0 -- -- 79
2021-01-04 13:00:00 12.4 24 Oeste 50 Oeste 0 -- -- 70
2021-01-04 12:00:00 12.5 25 Sudoeste 47 Sudoeste 0 -- -- 68
2021-01-04 11:00:00 13.3 22 Sudoeste 48 Sudoeste 0 -- -- 62
2021-01-04 10:00:00 11.6 28 Oeste 44 Oeste 0 -- -- 62
2021-01-04 09:00:00 8.8 9 Sudoeste 35 Oeste 0 -- -- 80
2021-01-04 08:00:00 8.9 15 Oeste 31 Oeste 0 -- -- 81
2021-01-04 07:00:00 7.5 16 Oeste 26 Oeste 0 -- -- 91
2021-01-04 06:00:00 6.9 16 Oeste 27 Oeste 0 -- -- 96
2021-01-04 05:00:00 6.3 0 Calma 18 Oeste 0 -- -- 96
2021-01-04 04:00:00 6.3 10 Oeste 18 Oeste 0 -- -- 93
2021-01-04 03:00:00 6.7 6 Oeste 12 Sudoeste 0 -- -- 82
2021-01-04 02:00:00 6.8 2 Sur 12 Sudoeste 0 -- -- 87
2021-01-04 01:00:00 6.9 3 Sudeste 10 Oeste 0 -- -- 82
2021-01-04 00:00:00 6.8 6 Oeste 13 Sudoeste 0 -- -- 64
2021-01-03 23:00:00 6.9 2 Sudoeste 16 Sudoeste 0 -- -- 61
2021-01-03 22:00:00 6.8 4 Sudoeste 10 Oeste 0 -- -- 66
2021-01-03 21:00:00 7.2 3 Sudoeste 10 Sudoeste 0 -- -- 63
2021-01-03 20:00:00 7 3 Sudoeste 9 Sudoeste 0 -- -- 68
2021-01-03 19:00:00 7.5 3 Sudoeste 9 Oeste 0 -- -- 71
2021-01-03 18:00:00 7.1 2 Sur 10 Oeste 0 -- -- 93
2021-01-03 17:00:00 8.2 0 Calma 12 Oeste 0 -- -- 86
2021-01-03 16:00:00 8.6 3 Oeste 13 Oeste 0 -- -- 83
2021-01-03 15:00:00 8.6 6 Oeste 11 Oeste 0 -- -- 82
2021-01-03 14:00:00 6.9 4 Oeste 12 Oeste 0 -- -- 89
2021-01-03 13:00:00 7 5 Oeste 12 Oeste 0 -- -- 86
2021-01-03 12:00:00 6.9 4 Nordeste 9 Nordeste 0 -- -- 89
2021-01-03 11:00:00 5.9 2 Oeste 9 Oeste 0 -- -- 84
2021-01-03 10:00:00 6.8 5 Oeste 9 Oeste 0 -- -- 58
2021-01-03 09:00:00 7.5 0 Calma 6 Sudoeste 0 -- -- 27
2021-01-03 08:00:00 6.4 3 Sur 5 Oeste 0 -- -- 21
2021-01-03 07:00:00 5 3 Oeste 6 Noroeste 0 -- -- 33
2021-01-03 06:00:00 3.9 5 Este 10 Oeste 0 -- -- 29
2021-01-03 05:00:00 5.1 4 Nordeste 11 Nordeste 0 -- -- 35
2021-01-03 04:00:00 4.6 3 Este 8 Nordeste 0 -- -- 34
2021-01-03 03:00:00 4.4 3 Oeste 10 Nordeste 0 -- -- 71
2021-01-03 02:00:00 6.2 6 Este 15 Este 0 -- -- 31
2021-01-03 01:00:00 3.3 4 Este 16 Nordeste 0 -- -- 57
2021-01-03 00:00:00 4.5 7 Este 14 Nordeste 0 -- -- 84
2021-01-02 23:00:00 3.5 6 Este 20 Este 0 -- -- 89
2021-01-02 22:00:00 3.7 4 Nordeste 10 Este 0 -- -- 81
2021-01-02 21:00:00 6 3 Este 5 Este 0 -- -- 27
2021-01-02 20:00:00 5.1 2 Nordeste 5 Este 0 -- -- 33
2021-01-02 19:00:00 4.8 3 Este 7 Nordeste 0 -- -- 35
2021-01-02 18:00:00 4.3 3 Este 10 Nordeste 0 -- -- 65
2021-01-02 17:00:00 6.1 5 Oeste 9 Oeste 0 -- -- 94
2021-01-02 16:00:00 7.8 5 Oeste 11 Oeste 0 -- -- 86
2021-01-02 15:00:00 8 4 Oeste 13 Oeste 0 -- -- 82
2021-01-02 14:00:00 7.7 7 Oeste 13 Oeste 0 -- -- 84
2021-01-02 13:00:00 8.3 4 Oeste 12 Nordeste 0 -- -- 83